createdAt,value
2022-07-25T00:00:08.909Z,81.00
2022-07-25T00:02:57.294Z,81.22
2022-07-25T00:05:26.406Z,81.07
2022-07-25T00:07:54.980Z,80.96
2022-07-25T00:10:24.090Z,81.08
2022-07-25T00:12:53.309Z,81.39
2022-07-25T00:15:22.066Z,81.59
2022-07-25T00:17:50.526Z,81.64
2022-07-25T00:20:18.970Z,81.81
2022-07-25T00:22:47.401Z,81.85
2022-07-25T00:25:15.821Z,81.62
2022-07-25T00:27:44.308Z,81.78
2022-07-25T00:30:14.020Z,81.74
2022-07-25T00:32:43.175Z,81.79
2022-07-25T00:35:11.699Z,81.75
2022-07-25T00:37:40.107Z,81.78
2022-07-25T00:40:11.681Z,81.92
2022-07-25T00:42:40.826Z,81.80
2022-07-25T00:45:10.719Z,81.80
2022-07-25T00:47:39.234Z,81.97
2022-07-25T00:50:10.846Z,82.12
2022-07-25T01:45:37.982Z,79.55
2022-07-25T01:48:10.128Z,79.70
2022-07-25T01:50:42.358Z,79.83
2022-07-25T01:53:14.252Z,79.98
2022-07-25T01:55:47.395Z,80.54
2022-07-25T01:58:19.265Z,80.86
2022-07-25T02:00:51.797Z,81.33
2022-07-25T02:03:33.356Z,81.31
2022-07-25T02:06:08.154Z,81.30
2022-07-25T02:08:39.937Z,81.27
2022-07-25T02:11:11.807Z,81.14
2022-07-25T02:13:44.722Z,81.31
2022-07-25T02:16:16.559Z,81.03
2022-07-25T02:18:48.417Z,81.21
2022-07-25T02:21:20.450Z,81.60
2022-07-25T02:23:52.366Z,81.39
2022-07-25T02:26:24.274Z,81.43
2022-07-25T02:28:56.157Z,81.52
2022-07-25T02:31:28.070Z,81.71
2022-07-25T02:33:59.951Z,81.81
2022-07-25T02:36:31.755Z,81.63
2022-07-25T02:39:03.567Z,81.69
2022-07-25T02:41:35.415Z,81.96
2022-07-25T02:44:08.414Z,82.16
2022-07-25T02:46:40.414Z,82.03
2022-07-25T02:49:12.284Z,82.07
2022-07-25T04:22:28.340Z,78.02
2022-07-25T04:37:19.947Z,77.25
2022-07-25T05:05:03.081Z,74.98
2022-07-25T05:07:31.866Z,74.64
2022-07-25T05:10:00.622Z,74.73
2022-07-25T05:12:29.207Z,75.12
2022-07-25T05:14:57.689Z,75.14
2022-07-25T05:17:26.102Z,75.54
2022-07-25T05:19:54.509Z,75.54
2022-07-25T05:22:28.000Z,75.60
2022-07-25T05:24:57.039Z,75.69
2022-07-25T05:27:25.482Z,75.83
2022-07-25T05:29:53.881Z,75.88
2022-07-25T05:32:22.339Z,76.18
2022-07-25T05:34:50.821Z,75.98
2022-07-25T05:37:19.629Z,75.92
2022-07-25T05:39:48.068Z,76.16
2022-07-25T05:42:16.583Z,75.81
2022-07-25T05:44:44.959Z,75.81
2022-07-25T05:47:13.843Z,75.82
2022-07-25T05:49:42.256Z,75.72
2022-07-25T06:00:19.644Z,75.28
2022-07-25T06:14:01.928Z,73.67
2022-07-25T06:16:33.824Z,73.12
2022-07-25T06:19:05.747Z,72.80
2022-07-25T06:21:37.980Z,72.42
2022-07-25T06:24:10.580Z,72.24
2022-07-25T06:26:42.963Z,71.45
2022-07-25T06:29:14.874Z,70.72
2022-07-25T06:31:47.226Z,69.99
2022-07-25T06:34:19.372Z,69.18
2022-07-25T06:36:51.183Z,69.03
2022-07-25T06:39:22.954Z,68.58
2022-07-25T06:41:54.942Z,68.26
2022-07-25T06:44:27.347Z,68.21
2022-07-25T06:46:59.310Z,68.13
2022-07-25T06:49:31.245Z,68.19
2022-07-25T06:52:06.147Z,68.27
2022-07-25T06:54:38.044Z,68.08
2022-07-25T06:57:11.111Z,67.94
2022-07-25T06:59:44.981Z,67.52
2022-07-25T07:02:16.829Z,67.54
2022-07-25T07:04:48.704Z,67.56
2022-07-25T07:07:20.987Z,67.67
2022-07-25T07:09:52.845Z,67.70
2022-07-25T07:12:25.014Z,67.34
2022-07-25T07:14:57.224Z,67.25
2022-07-25T07:17:29.076Z,67.57
2022-07-25T07:20:08.388Z,67.34
2022-07-25T07:22:48.132Z,67.23
2022-07-25T07:25:21.453Z,66.66
2022-07-25T07:27:53.762Z,66.44
2022-07-25T07:30:52.241Z,66.63
2022-07-25T07:33:17.570Z,66.60
2022-07-25T07:35:49.466Z,66.39
2022-07-25T07:38:21.677Z,65.83
2022-07-25T07:40:54.161Z,65.75
2022-07-25T07:43:29.980Z,65.65
2022-07-25T07:46:02.455Z,65.27
2022-07-25T07:48:35.217Z,65.11
2022-07-25T07:51:07.542Z,65.02
2022-07-25T07:53:56.912Z,65.18
2022-07-25T07:56:28.669Z,64.64
2022-07-25T07:59:00.514Z,64.22
2022-07-25T08:01:32.757Z,63.97
2022-07-25T08:04:10.330Z,63.31
2022-07-25T08:06:43.304Z,62.61
2022-07-25T08:09:15.359Z,62.20
2022-07-25T08:11:47.209Z,61.94
2022-07-25T08:14:19.085Z,61.34
2022-07-25T08:16:52.782Z,60.98
2022-07-25T08:19:24.755Z,60.75
2022-07-25T08:21:56.497Z,60.70
2022-07-25T08:24:28.405Z,60.32
2022-07-25T08:27:00.314Z,59.93
2022-07-25T08:29:32.130Z,59.56
2022-07-25T08:32:03.961Z,59.90
2022-07-25T08:34:35.839Z,59.79
2022-07-25T08:37:07.614Z,59.69
2022-07-25T08:39:41.585Z,58.53
2022-07-25T08:42:13.764Z,57.94
2022-07-25T08:44:50.572Z,57.17
2022-07-25T08:47:24.539Z,56.90
2022-07-25T08:50:00.863Z,56.99
2022-07-25T08:52:37.392Z,56.60
2022-07-25T08:55:13.591Z,55.34
2022-07-25T08:57:46.199Z,55.82
2022-07-25T09:00:21.588Z,56.33
2022-07-25T09:02:57.884Z,56.69
2022-07-25T09:05:31.614Z,56.37
2022-07-25T09:08:11.545Z,55.87
2022-07-25T09:10:49.357Z,55.54
2022-07-25T09:13:23.781Z,55.56
2022-07-25T09:15:59.935Z,55.42
2022-07-25T09:18:33.934Z,55.27
2022-07-25T09:21:06.005Z,54.54
2022-07-25T09:23:40.669Z,54.13
2022-07-25T09:26:14.175Z,52.69
2022-07-25T09:28:48.455Z,53.13
2022-07-25T09:31:20.831Z,53.12
2022-07-25T09:33:56.532Z,53.40
2022-07-25T09:36:28.432Z,53.22
2022-07-25T09:39:02.191Z,52.84
2022-07-25T09:41:37.799Z,52.94
2022-07-25T09:44:19.704Z,52.47
2022-07-25T09:46:51.733Z,51.69
2022-07-25T09:49:23.864Z,51.19
2022-07-25T09:51:55.887Z,51.84
2022-07-25T09:54:28.083Z,51.70
2022-07-25T09:57:00.084Z,51.16
2022-07-25T09:59:32.222Z,51.13
2022-07-25T10:02:10.639Z,50.51
2022-07-25T10:04:52.708Z,50.80
2022-07-25T10:07:30.928Z,50.98
2022-07-25T10:10:03.587Z,50.46
2022-07-25T10:12:38.304Z,50.44
2022-07-25T10:15:13.670Z,50.33
2022-07-25T10:17:45.634Z,48.60
2022-07-25T10:20:28.328Z,49.54
2022-07-25T10:23:00.281Z,50.10
2022-07-25T10:25:32.263Z,48.98
2022-07-25T10:28:10.216Z,48.66
2022-07-25T10:30:43.995Z,49.10
2022-07-25T10:33:19.287Z,48.71
2022-07-25T10:35:51.133Z,48.76
2022-07-25T10:38:29.908Z,47.87
2022-07-25T10:41:05.508Z,47.83
2022-07-25T10:43:43.663Z,47.91
2022-07-25T10:46:23.177Z,47.55
2022-07-25T10:49:03.878Z,47.14
2022-07-25T10:51:41.480Z,46.37
2022-07-25T10:54:19.418Z,46.24
2022-07-25T10:56:59.036Z,46.15
2022-07-25T10:59:33.838Z,45.76
2022-07-25T11:02:08.577Z,45.44
2022-07-25T11:04:40.545Z,45.48
2022-07-25T11:07:13.961Z,45.00
2022-07-25T11:09:57.275Z,44.42
2022-07-25T11:12:29.473Z,44.68
2022-07-25T11:15:06.109Z,45.30
2022-07-25T11:17:37.943Z,45.23
2022-07-25T11:20:13.445Z,44.92
2022-07-25T11:22:51.530Z,45.27
2022-07-25T11:25:24.370Z,45.17
2022-07-25T11:28:00.889Z,44.58
2022-07-25T11:30:32.875Z,43.80
2022-07-25T11:33:04.964Z,43.61
2022-07-25T11:35:36.906Z,43.73
2022-07-25T11:38:08.844Z,43.41
2022-07-25T11:40:47.022Z,43.43
2022-07-25T11:43:24.553Z,43.66
2022-07-25T11:46:01.972Z,43.88
2022-07-25T11:48:39.547Z,43.05
2022-07-25T11:51:19.908Z,43.28
2022-07-25T11:53:52.892Z,43.22
2022-07-25T11:56:42.396Z,42.72
2022-07-25T11:59:15.797Z,42.91
2022-07-25T12:01:50.322Z,42.91
2022-07-25T12:04:23.162Z,42.31
2022-07-25T12:07:04.474Z,42.85
2022-07-25T12:09:36.402Z,42.51
2022-07-25T12:12:11.004Z,42.04
2022-07-25T12:14:46.661Z,41.63
2022-07-25T12:17:19.279Z,41.03
2022-07-25T12:19:51.343Z,41.24
2022-07-25T12:22:23.306Z,41.76
2022-07-25T12:24:55.059Z,41.44
2022-07-25T12:27:26.940Z,41.17
2022-07-25T12:29:59.231Z,40.29
2022-07-25T12:32:31.159Z,40.64
2022-07-25T12:35:03.023Z,40.78
2022-07-25T12:37:35.296Z,40.37
2022-07-25T12:40:09.056Z,40.62
2022-07-25T12:42:41.207Z,39.81
2022-07-25T12:45:18.165Z,39.83
2022-07-25T12:47:50.940Z,39.88
2022-07-25T12:50:25.823Z,40.69
2022-07-25T12:52:57.967Z,40.71
2022-07-25T12:55:30.921Z,40.22
2022-07-25T12:58:04.272Z,39.83
2022-07-25T13:00:36.414Z,39.38
2022-07-25T13:03:08.210Z,39.26
2022-07-25T13:05:40.798Z,39.28
2022-07-25T13:08:12.627Z,39.08
2022-07-25T13:10:44.423Z,38.93
2022-07-25T13:13:17.858Z,39.57
2022-07-25T13:15:49.627Z,39.00
2022-07-25T13:18:21.464Z,39.43
2022-07-25T13:20:53.280Z,38.92
2022-07-25T13:23:25.087Z,38.64
2022-07-25T13:25:56.920Z,39.04
2022-07-25T13:28:28.830Z,38.86
2022-07-25T13:31:01.891Z,38.52
2022-07-25T13:33:34.312Z,38.54
2022-07-25T13:36:07.112Z,38.81
2022-07-25T13:38:41.519Z,38.78
2022-07-25T13:41:14.103Z,38.96
2022-07-25T13:43:46.544Z,39.00
2022-07-25T13:46:18.382Z,39.38
2022-07-25T13:48:50.815Z,38.39
2022-07-25T13:51:22.805Z,39.28
2022-07-25T13:53:54.950Z,39.50
2022-07-25T13:56:26.799Z,38.40
2022-07-25T13:58:58.746Z,39.04
2022-07-25T14:01:30.798Z,39.34
2022-07-25T14:04:02.928Z,39.11
2022-07-25T14:06:34.856Z,38.93
2022-07-25T14:09:07.046Z,39.18
2022-07-25T14:11:39.122Z,39.13
2022-07-25T14:14:10.926Z,39.25
2022-07-25T14:16:42.972Z,38.89
2022-07-25T14:19:15.089Z,38.40
2022-07-25T14:21:47.034Z,38.85
2022-07-25T14:24:18.808Z,39.32
2022-07-25T14:26:50.599Z,38.70
2022-07-25T14:29:25.950Z,39.00
2022-07-25T14:32:00.554Z,38.90
2022-07-25T14:34:32.442Z,39.40
2022-07-25T14:37:05.937Z,38.93
2022-07-25T14:39:37.850Z,39.13
2022-07-25T14:42:11.401Z,39.27
2022-07-25T14:44:45.395Z,38.80
2022-07-25T14:47:17.344Z,38.75
2022-07-25T14:49:49.641Z,38.82
2022-07-25T14:52:21.377Z,39.07
2022-07-25T14:54:53.429Z,38.91
2022-07-25T14:57:25.569Z,38.93
2022-07-25T14:59:57.398Z,38.65
2022-07-25T15:02:29.288Z,38.34
2022-07-25T15:05:01.124Z,38.30
2022-07-25T15:07:33.090Z,38.36
2022-07-25T15:10:05.167Z,38.26
2022-07-25T15:12:36.997Z,38.25
2022-07-25T15:15:11.449Z,38.82
2022-07-25T15:17:43.324Z,39.22
2022-07-25T15:20:15.781Z,38.89
2022-07-25T15:22:47.636Z,38.75
2022-07-25T15:25:59.576Z,38.41
2022-07-25T15:28:11.252Z,38.02
2022-07-25T15:30:43.164Z,37.45
2022-07-25T15:33:15.384Z,36.97
2022-07-25T15:35:48.680Z,37.48
2022-07-25T15:38:21.002Z,38.02
2022-07-25T15:40:53.003Z,37.52
2022-07-25T15:43:25.259Z,38.67
2022-07-25T15:45:57.083Z,38.24
2022-07-25T15:48:29.876Z,38.61
2022-07-25T15:51:01.661Z,38.38
2022-07-25T15:53:33.474Z,38.07
2022-07-25T15:56:05.679Z,37.70
2022-07-25T15:58:37.810Z,38.02
2022-07-25T16:01:09.783Z,37.91
2022-07-25T16:03:41.740Z,37.93
2022-07-25T16:06:18.656Z,37.81
2022-07-25T16:08:51.009Z,37.63
2022-07-25T16:11:29.049Z,37.97
2022-07-25T16:14:01.334Z,37.97
2022-07-25T16:16:33.517Z,37.47
2022-07-25T16:19:12.215Z,37.50
2022-07-25T16:21:44.037Z,37.59
2022-07-25T16:24:15.984Z,37.22
2022-07-25T16:26:49.077Z,37.27
2022-07-25T16:29:21.293Z,38.09
2022-07-25T16:31:53.617Z,37.59
2022-07-25T16:34:29.272Z,37.63
2022-07-25T16:37:01.869Z,37.98
2022-07-25T16:39:33.962Z,38.15
2022-07-25T16:42:05.958Z,37.78
2022-07-25T16:44:37.838Z,37.63
2022-07-25T16:47:11.452Z,37.88
2022-07-25T16:49:43.301Z,37.48
2022-07-25T16:52:16.039Z,38.01
2022-07-25T16:54:47.925Z,38.26
2022-07-25T16:57:23.826Z,38.37
2022-07-25T16:59:57.139Z,38.87
2022-07-25T17:02:29.922Z,38.66
2022-07-25T17:05:02.132Z,39.03
2022-07-25T17:07:34.724Z,39.15
2022-07-25T17:10:12.592Z,39.20
2022-07-25T17:12:44.588Z,39.07
2022-07-25T17:15:17.630Z,39.45
2022-07-25T17:17:49.658Z,39.78
2022-07-25T17:20:21.825Z,39.94
2022-07-25T17:22:53.645Z,40.15
2022-07-25T17:25:25.648Z,39.73
2022-07-25T17:27:57.525Z,40.29
2022-07-25T17:30:29.332Z,40.05
2022-07-25T17:37:44.157Z,40.44
2022-07-25T17:40:16.167Z,40.67
2022-07-25T17:43:30.360Z,40.92
2022-07-25T17:46:13.604Z,40.88
2022-07-25T17:48:46.492Z,40.90
2022-07-25T17:51:18.390Z,41.25
2022-07-25T17:54:19.373Z,40.89
2022-07-25T17:56:51.469Z,41.37
2022-07-25T17:59:23.239Z,41.45
2022-07-25T18:01:55.307Z,41.83
2022-07-25T18:04:27.259Z,41.78
2022-07-25T18:06:59.204Z,41.93
2022-07-25T18:09:31.810Z,42.02
2022-07-25T18:12:04.104Z,41.98
2022-07-25T18:14:36.043Z,42.04
2022-07-25T18:17:07.908Z,42.34
2022-07-25T18:19:39.813Z,42.49
2022-07-25T18:22:11.747Z,42.47
2022-07-25T18:24:43.594Z,42.47
2022-07-25T18:27:15.460Z,42.58
2022-07-25T18:29:47.387Z,42.40
2022-07-25T18:32:19.235Z,42.67
2022-07-25T18:34:52.565Z,42.43
2022-07-25T18:37:24.441Z,42.69
2022-07-25T18:39:56.359Z,42.95
2022-07-25T18:42:30.039Z,43.02
2022-07-25T18:45:02.252Z,43.15
2022-07-25T18:47:35.089Z,43.40
2022-07-25T18:50:08.441Z,43.66
2022-07-25T18:56:07.054Z,44.29
2022-07-25T18:58:39.177Z,44.61
2022-07-25T19:01:11.145Z,45.16
2022-07-25T19:03:43.325Z,45.07
2022-07-25T19:06:15.284Z,45.28
2022-07-25T19:08:48.066Z,46.21
2022-07-25T19:11:19.954Z,46.52
2022-07-25T19:13:51.799Z,46.75
2022-07-25T19:16:23.753Z,47.18
2022-07-25T19:18:55.748Z,47.44
2022-07-25T19:21:27.625Z,47.79
2022-07-25T19:23:59.524Z,47.66
2022-07-25T19:26:32.635Z,47.95
2022-07-25T19:29:07.797Z,48.23
2022-07-25T19:31:40.149Z,48.51
2022-07-25T19:34:12.259Z,48.64
2022-07-25T19:36:46.068Z,49.02
2022-07-25T19:39:18.611Z,49.04
2022-07-25T19:41:50.539Z,49.23
2022-07-25T19:44:22.405Z,49.27
2022-07-25T19:46:54.380Z,49.31
2022-07-25T19:49:26.346Z,49.60
2022-07-25T19:51:58.169Z,49.85
2022-07-25T19:54:30.002Z,49.93
2022-07-25T19:57:01.970Z,50.20
2022-07-25T19:59:34.102Z,50.35
2022-07-25T20:02:06.551Z,50.86
2022-07-25T20:04:40.844Z,51.37
2022-07-25T20:07:12.717Z,51.54
2022-07-25T20:09:44.583Z,51.97
2022-07-25T20:12:16.836Z,52.24
2022-07-25T20:14:48.749Z,52.33
2022-07-25T20:17:22.066Z,52.48
2022-07-25T20:19:53.940Z,52.93
2022-07-25T20:22:25.753Z,53.02
2022-07-25T20:24:57.554Z,52.98
2022-07-25T20:27:29.426Z,52.94
2022-07-25T20:30:03.527Z,53.27
2022-07-25T20:32:35.629Z,53.50
2022-07-25T20:35:09.122Z,54.05
2022-07-25T20:37:41.282Z,54.04
2022-07-25T20:40:16.077Z,54.16
2022-07-25T20:42:48.230Z,54.59
2022-07-25T20:45:20.152Z,55.26
2022-07-25T20:47:52.008Z,55.18
2022-07-25T20:50:23.990Z,55.49
2022-07-25T20:52:55.944Z,55.69
2022-07-25T20:55:28.595Z,55.88
2022-07-25T20:58:00.762Z,56.24
2022-07-25T21:00:33.348Z,55.99
2022-07-25T21:03:08.235Z,56.19
2022-07-25T21:05:42.055Z,56.37
2022-07-25T21:08:13.901Z,56.63
2022-07-25T21:10:45.901Z,56.98
2022-07-25T21:13:18.532Z,56.98
2022-07-25T21:15:50.737Z,57.17
2022-07-25T21:18:24.661Z,57.34
2022-07-25T21:20:56.588Z,57.60
2022-07-25T21:23:28.949Z,57.56
2022-07-25T21:26:01.474Z,57.84
2022-07-25T21:28:33.414Z,57.95
2022-07-25T21:31:05.245Z,58.25
2022-07-25T21:33:37.248Z,58.39
2022-07-25T21:39:25.035Z,58.83
2022-07-25T21:41:56.894Z,58.77
2022-07-25T21:44:28.810Z,59.01
2022-07-25T21:47:00.627Z,59.44
2022-07-25T21:49:50.406Z,59.40
2022-07-25T21:52:30.041Z,59.57
2022-07-25T21:55:07.975Z,59.77
2022-07-25T21:57:39.794Z,59.83
2022-07-25T22:00:16.064Z,59.75
2022-07-25T22:02:48.458Z,60.05
2022-07-25T22:05:20.733Z,60.10
2022-07-25T22:07:52.918Z,60.10
2022-07-25T22:10:25.004Z,60.15
2022-07-25T22:12:56.831Z,60.30
2022-07-25T22:15:28.696Z,60.44
2022-07-25T22:18:00.547Z,60.62
2022-07-25T22:20:32.491Z,60.91
2022-07-25T22:23:04.764Z,60.70
2022-07-25T22:25:39.397Z,60.68
2022-07-25T22:28:14.156Z,60.94
2022-07-25T22:30:46.304Z,61.06
2022-07-25T22:33:18.259Z,61.37
2022-07-25T22:35:50.242Z,61.41
2022-07-25T22:38:22.224Z,61.18
2022-07-25T22:40:54.141Z,61.18
2022-07-25T22:43:56.937Z,61.33
2022-07-25T22:46:18.068Z,61.45
2022-07-25T22:48:49.973Z,61.38
2022-07-25T22:51:22.405Z,61.38
2022-07-25T22:53:54.397Z,61.49
2022-07-25T22:56:26.664Z,61.39
2022-07-25T22:58:59.041Z,61.30
2022-07-25T23:01:30.901Z,61.46
2022-07-25T23:04:02.844Z,61.62
2022-07-25T23:06:35.070Z,61.55
2022-07-25T23:09:07.721Z,61.58
2022-07-25T23:11:39.702Z,61.44
2022-07-25T23:14:11.591Z,61.57
2022-07-25T23:16:43.539Z,61.42
2022-07-25T23:19:15.477Z,61.77
2022-07-25T23:21:47.298Z,61.86
2022-07-25T23:24:19.111Z,61.73
2022-07-25T23:26:51.077Z,61.62
2022-07-25T23:29:23.034Z,61.56
2022-07-25T23:31:54.946Z,61.49
2022-07-25T23:34:26.761Z,61.60
2022-07-25T23:36:58.741Z,61.63
2022-07-25T23:39:31.893Z,61.49
2022-07-25T23:42:04.429Z,61.61
2022-07-25T23:44:36.580Z,61.40
2022-07-25T23:47:10.854Z,61.45
2022-07-25T23:49:42.865Z,61.18
2022-07-25T23:52:14.721Z,61.36
2022-07-25T23:54:46.577Z,61.22
2022-07-25T23:57:18.593Z,61.04
2022-07-25T23:59:50.471Z,61.07
